Terminal Aerodrome Forecast
Issued by NWS

Home | Current Version | Previous Version | Text Only | Print | Product List | Glossary On
Versions: 1 2 3 4 5 6 7 8 9 10 11 12 13 14 15 16 17 18 19 20 21 22 23 24 25 26 27
000
FTUS41 KGYX 212328
TAFLEB
TAF
KLEB 212328Z 2200/2224 17005KT P6SM BKN025
     FM220300 19006KT 3SM BR OVC015
     FM220700 23008KT 1/4SM FG OVC002
     FM221400 28014G20KT P6SM OVC015
     FM221500 29015G22KT P6SM OVC050=

USA.gov is the U.S. government's official web portal to all federal, state and local government web resources and services.